sensor_id;sensor_type;location;lat;lon;timestamp;P1;durP1;ratioP1;P2;durP2;ratioP2
773;SDS011;370;48.810;9.150;2023-06-19T00:01:58;10.37;;;4.60;;
773;SDS011;370;48.810;9.150;2023-06-19T00:04:25;6.20;;;4.13;;
773;SDS011;370;48.810;9.150;2023-06-19T00:06:52;6.93;;;4.20;;
773;SDS011;370;48.810;9.150;2023-06-19T00:09:19;7.17;;;4.20;;
773;SDS011;370;48.810;9.150;2023-06-19T00:15:09;8.07;;;4.67;;
773;SDS011;370;48.810;9.150;2023-06-19T00:17:36;6.83;;;3.50;;
773;SDS011;370;48.810;9.150;2023-06-19T00:20:04;6.77;;;3.93;;
773;SDS011;370;48.810;9.150;2023-06-19T00:22:41;7.03;;;4.23;;
773;SDS011;370;48.810;9.150;2023-06-19T00:25:08;6.70;;;4.00;;
773;SDS011;370;48.810;9.150;2023-06-19T00:27:35;7.90;;;3.93;;
773;SDS011;370;48.810;9.150;2023-06-19T00:30:04;12.33;;;4.40;;
773;SDS011;370;48.810;9.150;2023-06-19T00:32:33;6.87;;;3.67;;
773;SDS011;370;48.810;9.150;2023-06-19T00:35:11;9.90;;;4.13;;
773;SDS011;370;48.810;9.150;2023-06-19T00:37:38;4.60;;;3.40;;
773;SDS011;370;48.810;9.150;2023-06-19T00:40:05;4.83;;;3.83;;
773;SDS011;370;48.810;9.150;2023-06-19T00:42:36;6.50;;;4.17;;
773;SDS011;370;48.810;9.150;2023-06-19T00:45:03;5.30;;;3.10;;
773;SDS011;370;48.810;9.150;2023-06-19T00:47:33;9.97;;;3.90;;
773;SDS011;370;48.810;9.150;2023-06-19T00:50:01;8.70;;;4.20;;
773;SDS011;370;48.810;9.150;2023-06-19T00:52:28;6.80;;;3.70;;
773;SDS011;370;48.810;9.150;2023-06-19T00:54:55;5.87;;;3.60;;
773;SDS011;370;48.810;9.150;2023-06-19T00:57:21;5.53;;;3.60;;
773;SDS011;370;48.810;9.150;2023-06-19T00:59:48;7.80;;;3.90;;
773;SDS011;370;48.810;9.150;2023-06-19T01:02:18;6.07;;;3.47;;
773;SDS011;370;48.810;9.150;2023-06-19T01:04:50;5.57;;;4.00;;
773;SDS011;370;48.810;9.150;2023-06-19T01:07:16;13.93;;;4.00;;
773;SDS011;370;48.810;9.150;2023-06-19T01:09:50;6.20;;;3.87;;
773;SDS011;370;48.810;9.150;2023-06-19T01:12:19;6.37;;;3.70;;
773;SDS011;370;48.810;9.150;2023-06-19T01:14:52;4.87;;;3.83;;
773;SDS011;370;48.810;9.150;2023-06-19T01:17:20;6.73;;;3.67;;
773;SDS011;370;48.810;9.150;2023-06-19T01:19:49;12.30;;;5.00;;
773;SDS011;370;48.810;9.150;2023-06-19T01:22:23;3.97;;;3.00;;
773;SDS011;370;48.810;9.150;2023-06-19T01:24:53;8.20;;;3.43;;
773;SDS011;370;48.810;9.150;2023-06-19T01:27:20;4.93;;;3.50;;
773;SDS011;370;48.810;9.150;2023-06-19T01:29:47;6.13;;;3.70;;
773;SDS011;370;48.810;9.150;2023-06-19T01:32:15;16.10;;;3.47;;
773;SDS011;370;48.810;9.150;2023-06-19T01:34:45;4.70;;;3.17;;
773;SDS011;370;48.810;9.150;2023-06-19T01:37:12;4.73;;;3.20;;
773;SDS011;370;48.810;9.150;2023-06-19T01:39:43;4.90;;;2.90;;
773;SDS011;370;48.810;9.150;2023-06-19T01:42:11;7.83;;;3.20;;
773;SDS011;370;48.810;9.150;2023-06-19T01:44:39;4.43;;;3.10;;
773;SDS011;370;48.810;9.150;2023-06-19T01:47:09;4.70;;;3.03;;
773;SDS011;370;48.810;9.150;2023-06-19T01:49:37;5.27;;;3.27;;
773;SDS011;370;48.810;9.150;2023-06-19T01:52:04;3.70;;;2.73;;
773;SDS011;370;48.810;9.150;2023-06-19T01:54:31;4.67;;;3.10;;
773;SDS011;370;48.810;9.150;2023-06-19T01:56:59;5.23;;;3.37;;
773;SDS011;370;48.810;9.150;2023-06-19T01:59:27;4.30;;;3.20;;
773;SDS011;370;48.810;9.150;2023-06-19T02:01:53;5.70;;;3.50;;
773;SDS011;370;48.810;9.150;2023-06-19T02:04:20;3.80;;;2.77;;
773;SDS011;370;48.810;9.150;2023-06-19T02:06:47;3.87;;;3.20;;
773;SDS011;370;48.810;9.150;2023-06-19T02:09:13;4.10;;;3.07;;
773;SDS011;370;48.810;9.150;2023-06-19T02:11:40;4.93;;;3.27;;
773;SDS011;370;48.810;9.150;2023-06-19T02:14:09;4.70;;;3.13;;
773;SDS011;370;48.810;9.150;2023-06-19T02:16:36;3.90;;;2.80;;
773;SDS011;370;48.810;9.150;2023-06-19T02:19:03;5.03;;;3.33;;
773;SDS011;370;48.810;9.150;2023-06-19T02:21:30;3.33;;;2.43;;
773;SDS011;370;48.810;9.150;2023-06-19T02:23:56;3.87;;;2.80;;
773;SDS011;370;48.810;9.150;2023-06-19T02:26:24;2.90;;;2.60;;
773;SDS011;370;48.810;9.150;2023-06-19T02:28:52;4.40;;;3.00;;
773;SDS011;370;48.810;9.150;2023-06-19T02:31:20;3.67;;;2.97;;
773;SDS011;370;48.810;9.150;2023-06-19T02:33:47;5.20;;;3.13;;
773;SDS011;370;48.810;9.150;2023-06-19T02:36:14;4.17;;;2.80;;
773;SDS011;370;48.810;9.150;2023-06-19T02:38:44;3.77;;;2.60;;
773;SDS011;370;48.810;9.150;2023-06-19T02:41:11;4.53;;;3.13;;
773;SDS011;370;48.810;9.150;2023-06-19T02:43:38;3.97;;;2.83;;
773;SDS011;370;48.810;9.150;2023-06-19T02:46:06;4.17;;;3.03;;
773;SDS011;370;48.810;9.150;2023-06-19T02:48:34;2.60;;;2.33;;
773;SDS011;370;48.810;9.150;2023-06-19T02:54:23;3.50;;;2.53;;
773;SDS011;370;48.810;9.150;2023-06-19T02:56:49;2.73;;;2.40;;
773;SDS011;370;48.810;9.150;2023-06-19T02:59:16;3.80;;;2.47;;
773;SDS011;370;48.810;9.150;2023-06-19T03:01:43;3.07;;;2.57;;
773;SDS011;370;48.810;9.150;2023-06-19T03:04:11;4.17;;;2.40;;
773;SDS011;370;48.810;9.150;2023-06-19T03:06:38;5.40;;;2.20;;
773;SDS011;370;48.810;9.150;2023-06-19T03:09:05;2.93;;;2.67;;
773;SDS011;370;48.810;9.150;2023-06-19T03:11:36;3.40;;;2.00;;
773;SDS011;370;48.810;9.150;2023-06-19T03:14:03;4.57;;;2.63;;
773;SDS011;370;48.810;9.150;2023-06-19T03:16:32;3.57;;;2.23;;
773;SDS011;370;48.810;9.150;2023-06-19T03:18:59;3.53;;;2.60;;
773;SDS011;370;48.810;9.150;2023-06-19T03:21:27;2.20;;;2.00;;
773;SDS011;370;48.810;9.150;2023-06-19T03:23:54;3.43;;;2.27;;
773;SDS011;370;48.810;9.150;2023-06-19T03:26:21;3.70;;;2.50;;
773;SDS011;370;48.810;9.150;2023-06-19T03:28:49;7.23;;;3.00;;
773;SDS011;370;48.810;9.150;2023-06-19T03:31:16;4.20;;;2.43;;
773;SDS011;370;48.810;9.150;2023-06-19T03:33:43;3.87;;;2.27;;
773;SDS011;370;48.810;9.150;2023-06-19T03:36:10;2.80;;;2.43;;
773;SDS011;370;48.810;9.150;2023-06-19T03:38:38;3.80;;;2.50;;
773;SDS011;370;48.810;9.150;2023-06-19T03:41:04;5.00;;;2.87;;
773;SDS011;370;48.810;9.150;2023-06-19T03:43:31;4.27;;;2.57;;
773;SDS011;370;48.810;9.150;2023-06-19T03:45:58;2.40;;;2.07;;
773;SDS011;370;48.810;9.150;2023-06-19T03:48:24;4.73;;;2.50;;
773;SDS011;370;48.810;9.150;2023-06-19T03:50:51;3.50;;;2.73;;
773;SDS011;370;48.810;9.150;2023-06-19T03:53:18;3.63;;;2.13;;
773;SDS011;370;48.810;9.150;2023-06-19T03:55:46;7.03;;;2.27;;
773;SDS011;370;48.810;9.150;2023-06-19T03:58:13;2.30;;;2.10;;
773;SDS011;370;48.810;9.150;2023-06-19T04:00:39;3.63;;;2.57;;
773;SDS011;370;48.810;9.150;2023-06-19T04:03:06;3.13;;;2.13;;
773;SDS011;370;48.810;9.150;2023-06-19T04:05:34;4.57;;;1.97;;
773;SDS011;370;48.810;9.150;2023-06-19T04:08:01;3.03;;;2.27;;
773;SDS011;370;48.810;9.150;2023-06-19T04:10:28;2.43;;;1.60;;
773;SDS011;370;48.810;9.150;2023-06-19T04:12:56;2.37;;;1.90;;
773;SDS011;370;48.810;9.150;2023-06-19T04:15:23;3.40;;;1.97;;
773;SDS011;370;48.810;9.150;2023-06-19T04:17:50;2.40;;;2.03;;
773;SDS011;370;48.810;9.150;2023-06-19T04:20:16;7.00;;;2.23;;
773;SDS011;370;48.810;9.150;2023-06-19T04:22:43;4.53;;;1.70;;
773;SDS011;370;48.810;9.150;2023-06-19T04:25:10;4.70;;;2.57;;
773;SDS011;370;48.810;9.150;2023-06-19T04:27:37;2.03;;;1.90;;
773;SDS011;370;48.810;9.150;2023-06-19T04:30:06;2.80;;;2.10;;
773;SDS011;370;48.810;9.150;2023-06-19T04:32:33;5.73;;;2.10;;
773;SDS011;370;48.810;9.150;2023-06-19T04:35:00;2.47;;;1.53;;
773;SDS011;370;48.810;9.150;2023-06-19T04:37:27;3.03;;;2.30;;
773;SDS011;370;48.810;9.150;2023-06-19T04:39:54;2.40;;;2.03;;
773;SDS011;370;48.810;9.150;2023-06-19T04:42:21;2.47;;;1.77;;
773;SDS011;370;48.810;9.150;2023-06-19T04:44:47;3.03;;;2.00;;
773;SDS011;370;48.810;9.150;2023-06-19T04:47:16;3.40;;;2.03;;
773;SDS011;370;48.810;9.150;2023-06-19T04:49:44;4.47;;;2.80;;
773;SDS011;370;48.810;9.150;2023-06-19T04:52:10;3.53;;;1.93;;
773;SDS011;370;48.810;9.150;2023-06-19T04:54:37;3.87;;;2.00;;
773;SDS011;370;48.810;9.150;2023-06-19T04:57:04;9.03;;;1.80;;
773;SDS011;370;48.810;9.150;2023-06-19T04:59:31;3.67;;;2.17;;
773;SDS011;370;48.810;9.150;2023-06-19T05:01:58;3.80;;;1.97;;
773;SDS011;370;48.810;9.150;2023-06-19T05:04:26;2.90;;;1.97;;
773;SDS011;370;48.810;9.150;2023-06-19T05:06:55;3.17;;;2.23;;
773;SDS011;370;48.810;9.150;2023-06-19T05:09:37;2.50;;;1.90;;
773;SDS011;370;48.810;9.150;2023-06-19T05:12:04;2.40;;;2.00;;
773;SDS011;370;48.810;9.150;2023-06-19T05:14:31;2.23;;;2.00;;
773;SDS011;370;48.810;9.150;2023-06-19T05:16:58;3.27;;;1.87;;
773;SDS011;370;48.810;9.150;2023-06-19T05:19:24;4.40;;;2.20;;
773;SDS011;370;48.810;9.150;2023-06-19T05:21:52;3.00;;;2.13;;
773;SDS011;370;48.810;9.150;2023-06-19T05:24:19;2.50;;;2.00;;
773;SDS011;370;48.810;9.150;2023-06-19T05:26:46;3.00;;;1.80;;
773;SDS011;370;48.810;9.150;2023-06-19T05:29:12;2.40;;;2.07;;
773;SDS011;370;48.810;9.150;2023-06-19T05:31:39;3.50;;;2.10;;
773;SDS011;370;48.810;9.150;2023-06-19T05:34:06;3.60;;;1.90;;
773;SDS011;370;48.810;9.150;2023-06-19T05:36:34;2.47;;;1.93;;
773;SDS011;370;48.810;9.150;2023-06-19T05:39:01;3.23;;;2.17;;
773;SDS011;370;48.810;9.150;2023-06-19T05:41:27;3.60;;;2.00;;
773;SDS011;370;48.810;9.150;2023-06-19T05:43:55;2.23;;;2.00;;
773;SDS011;370;48.810;9.150;2023-06-19T05:46:22;3.57;;;2.40;;
773;SDS011;370;48.810;9.150;2023-06-19T05:48:49;2.73;;;2.27;;
773;SDS011;370;48.810;9.150;2023-06-19T05:51:16;3.70;;;2.20;;
773;SDS011;370;48.810;9.150;2023-06-19T05:53:44;2.60;;;2.23;;
773;SDS011;370;48.810;9.150;2023-06-19T05:56:11;3.23;;;2.33;;
773;SDS011;370;48.810;9.150;2023-06-19T05:58:38;2.73;;;2.07;;
773;SDS011;370;48.810;9.150;2023-06-19T06:01:05;1.80;;;1.80;;
773;SDS011;370;48.810;9.150;2023-06-19T06:03:32;3.77;;;2.50;;
773;SDS011;370;48.810;9.150;2023-06-19T06:05:58;13.80;;;2.60;;
773;SDS011;370;48.810;9.150;2023-06-19T06:08:28;2.00;;;1.73;;
773;SDS011;370;48.810;9.150;2023-06-19T06:10:56;4.57;;;2.23;;
773;SDS011;370;48.810;9.150;2023-06-19T06:13:23;2.90;;;2.50;;
773;SDS011;370;48.810;9.150;2023-06-19T06:15:50;3.63;;;2.23;;
773;SDS011;370;48.810;9.150;2023-06-19T06:18:16;11.93;;;2.90;;
773;SDS011;370;48.810;9.150;2023-06-19T06:20:43;4.30;;;2.07;;
773;SDS011;370;48.810;9.150;2023-06-19T06:23:10;3.77;;;2.30;;
773;SDS011;370;48.810;9.150;2023-06-19T06:25:37;3.67;;;2.13;;
773;SDS011;370;48.810;9.150;2023-06-19T06:28:05;3.00;;;1.93;;
773;SDS011;370;48.810;9.150;2023-06-19T06:30:31;2.90;;;2.00;;
773;SDS011;370;48.810;9.150;2023-06-19T06:32:58;2.10;;;1.87;;
773;SDS011;370;48.810;9.150;2023-06-19T06:35:25;2.50;;;2.33;;
773;SDS011;370;48.810;9.150;2023-06-19T06:37:52;3.00;;;2.13;;
773;SDS011;370;48.810;9.150;2023-06-19T06:40:18;4.33;;;1.93;;
773;SDS011;370;48.810;9.150;2023-06-19T06:42:45;3.23;;;1.80;;
773;SDS011;370;48.810;9.150;2023-06-19T06:45:14;2.97;;;2.30;;
773;SDS011;370;48.810;9.150;2023-06-19T06:47:41;5.70;;;1.70;;
773;SDS011;370;48.810;9.150;2023-06-19T06:50:08;2.30;;;2.00;;
773;SDS011;370;48.810;9.150;2023-06-19T06:52:35;2.60;;;2.10;;
773;SDS011;370;48.810;9.150;2023-06-19T06:55:02;2.50;;;2.30;;
773;SDS011;370;48.810;9.150;2023-06-19T06:57:29;3.73;;;1.87;;
773;SDS011;370;48.810;9.150;2023-06-19T06:59:56;1.97;;;1.87;;
773;SDS011;370;48.810;9.150;2023-06-19T07:05:46;2.47;;;1.80;;
773;SDS011;370;48.810;9.150;2023-06-19T07:08:13;3.03;;;2.70;;
773;SDS011;370;48.810;9.150;2023-06-19T07:10:40;1.93;;;1.73;;
773;SDS011;370;48.810;9.150;2023-06-19T07:13:07;2.23;;;2.03;;
773;SDS011;370;48.810;9.150;2023-06-19T07:15:33;1.93;;;1.83;;
773;SDS011;370;48.810;9.150;2023-06-19T07:18:00;2.90;;;1.47;;
773;SDS011;370;48.810;9.150;2023-06-19T07:20:27;1.67;;;1.60;;
773;SDS011;370;48.810;9.150;2023-06-19T07:22:55;2.00;;;1.53;;
773;SDS011;370;48.810;9.150;2023-06-19T07:25:22;2.20;;;1.83;;
773;SDS011;370;48.810;9.150;2023-06-19T07:27:50;2.83;;;2.33;;
773;SDS011;370;48.810;9.150;2023-06-19T07:30:17;3.10;;;2.20;;
773;SDS011;370;48.810;9.150;2023-06-19T07:32:44;2.77;;;1.73;;
773;SDS011;370;48.810;9.150;2023-06-19T07:35:11;2.53;;;2.00;;
773;SDS011;370;48.810;9.150;2023-06-19T07:37:38;4.20;;;1.90;;
773;SDS011;370;48.810;9.150;2023-06-19T07:40:06;3.53;;;2.07;;
773;SDS011;370;48.810;9.150;2023-06-19T07:42:34;2.77;;;1.97;;
773;SDS011;370;48.810;9.150;2023-06-19T07:45:01;4.90;;;2.00;;
773;SDS011;370;48.810;9.150;2023-06-19T07:47:28;2.43;;;1.80;;
773;SDS011;370;48.810;9.150;2023-06-19T07:49:55;2.50;;;1.80;;
773;SDS011;370;48.810;9.150;2023-06-19T07:52:21;3.97;;;2.40;;
773;SDS011;370;48.810;9.150;2023-06-19T07:54:50;2.47;;;1.70;;
773;SDS011;370;48.810;9.150;2023-06-19T07:57:18;2.90;;;1.90;;
773;SDS011;370;48.810;9.150;2023-06-19T07:59:45;2.90;;;2.00;;
773;SDS011;370;48.810;9.150;2023-06-19T08:02:13;2.23;;;2.00;;
773;SDS011;370;48.810;9.150;2023-06-19T08:04:39;3.83;;;2.47;;
773;SDS011;370;48.810;9.150;2023-06-19T08:07:06;4.13;;;2.23;;
773;SDS011;370;48.810;9.150;2023-06-19T08:09:33;2.10;;;2.00;;
773;SDS011;370;48.810;9.150;2023-06-19T08:12:00;2.20;;;2.00;;
773;SDS011;370;48.810;9.150;2023-06-19T08:14:29;2.17;;;2.00;;
773;SDS011;370;48.810;9.150;2023-06-19T08:16:55;2.83;;;2.50;;
773;SDS011;370;48.810;9.150;2023-06-19T08:19:22;2.70;;;2.50;;
773;SDS011;370;48.810;9.150;2023-06-19T08:21:49;3.23;;;2.17;;
773;SDS011;370;48.810;9.150;2023-06-19T08:24:17;2.40;;;2.27;;
773;SDS011;370;48.810;9.150;2023-06-19T08:26:44;2.30;;;2.13;;
773;SDS011;370;48.810;9.150;2023-06-19T08:29:10;3.90;;;2.10;;
773;SDS011;370;48.810;9.150;2023-06-19T08:31:38;2.70;;;2.43;;
773;SDS011;370;48.810;9.150;2023-06-19T08:34:05;2.70;;;2.20;;
773;SDS011;370;48.810;9.150;2023-06-19T08:36:34;3.10;;;2.70;;
773;SDS011;370;48.810;9.150;2023-06-19T08:39:01;2.43;;;2.30;;
773;SDS011;370;48.810;9.150;2023-06-19T08:41:28;3.20;;;2.30;;
773;SDS011;370;48.810;9.150;2023-06-19T08:43:55;2.80;;;2.60;;
773;SDS011;370;48.810;9.150;2023-06-19T08:46:23;6.77;;;3.07;;
773;SDS011;370;48.810;9.150;2023-06-19T08:48:51;3.57;;;2.90;;
773;SDS011;370;48.810;9.150;2023-06-19T08:51:21;4.90;;;3.10;;
773;SDS011;370;48.810;9.150;2023-06-19T08:53:49;3.30;;;3.03;;
773;SDS011;370;48.810;9.150;2023-06-19T08:56:20;3.47;;;2.80;;
773;SDS011;370;48.810;9.150;2023-06-19T08:58:47;4.27;;;2.90;;
773;SDS011;370;48.810;9.150;2023-06-19T09:01:16;5.27;;;3.00;;
773;SDS011;370;48.810;9.150;2023-06-19T09:03:43;4.00;;;3.10;;
773;SDS011;370;48.810;9.150;2023-06-19T09:06:13;2.80;;;2.60;;
773;SDS011;370;48.810;9.150;2023-06-19T09:08:41;4.00;;;2.93;;
773;SDS011;370;48.810;9.150;2023-06-19T09:11:08;3.10;;;2.77;;
773;SDS011;370;48.810;9.150;2023-06-19T09:13:35;4.47;;;3.00;;
773;SDS011;370;48.810;9.150;2023-06-19T09:16:02;3.30;;;3.10;;
773;SDS011;370;48.810;9.150;2023-06-19T09:18:30;3.33;;;3.13;;
773;SDS011;370;48.810;9.150;2023-06-19T09:21:14;2.93;;;2.73;;
773;SDS011;370;48.810;9.150;2023-06-19T09:23:43;4.47;;;3.33;;
773;SDS011;370;48.810;9.150;2023-06-19T09:26:10;6.50;;;3.47;;
773;SDS011;370;48.810;9.150;2023-06-19T09:28:40;3.33;;;3.13;;
773;SDS011;370;48.810;9.150;2023-06-19T09:31:08;3.00;;;2.80;;
773;SDS011;370;48.810;9.150;2023-06-19T09:33:37;4.53;;;3.03;;
773;SDS011;370;48.810;9.150;2023-06-19T09:36:04;3.37;;;3.00;;
773;SDS011;370;48.810;9.150;2023-06-19T09:38:34;3.80;;;3.60;;
773;SDS011;370;48.810;9.150;2023-06-19T09:41:03;5.90;;;3.57;;
773;SDS011;370;48.810;9.150;2023-06-19T09:43:33;3.93;;;3.70;;
773;SDS011;370;48.810;9.150;2023-06-19T09:46:01;4.47;;;4.17;;
773;SDS011;370;48.810;9.150;2023-06-19T09:48:30;6.17;;;4.20;;
773;SDS011;370;48.810;9.150;2023-06-19T09:51:00;3.80;;;3.30;;
773;SDS011;370;48.810;9.150;2023-06-19T09:53:31;3.27;;;3.07;;
773;SDS011;370;48.810;9.150;2023-06-19T09:56:00;3.53;;;3.00;;
773;SDS011;370;48.810;9.150;2023-06-19T09:58:27;3.40;;;3.20;;
773;SDS011;370;48.810;9.150;2023-06-19T10:00:55;3.53;;;3.33;;
773;SDS011;370;48.810;9.150;2023-06-19T10:03:29;5.07;;;3.33;;
773;SDS011;370;48.810;9.150;2023-06-19T10:05:58;3.80;;;3.60;;
773;SDS011;370;48.810;9.150;2023-06-19T10:08:26;4.57;;;3.90;;
773;SDS011;370;48.810;9.150;2023-06-19T10:10:56;3.83;;;3.67;;
773;SDS011;370;48.810;9.150;2023-06-19T10:13:30;4.40;;;4.10;;
773;SDS011;370;48.810;9.150;2023-06-19T10:15:58;4.30;;;4.00;;
773;SDS011;370;48.810;9.150;2023-06-19T10:18:25;5.27;;;4.30;;
773;SDS011;370;48.810;9.150;2023-06-19T10:20:53;9.83;;;4.53;;
773;SDS011;370;48.810;9.150;2023-06-19T10:23:21;4.00;;;3.80;;
773;SDS011;370;48.810;9.150;2023-06-19T10:25:54;4.00;;;3.80;;
773;SDS011;370;48.810;9.150;2023-06-19T10:28:24;3.80;;;3.60;;
773;SDS011;370;48.810;9.150;2023-06-19T10:30:53;3.87;;;3.70;;
773;SDS011;370;48.810;9.150;2023-06-19T10:33:20;4.57;;;4.27;;
773;SDS011;370;48.810;9.150;2023-06-19T10:35:47;4.70;;;4.40;;
773;SDS011;370;48.810;9.150;2023-06-19T10:38:14;4.47;;;4.17;;
773;SDS011;370;48.810;9.150;2023-06-19T10:40:42;4.60;;;4.20;;
773;SDS011;370;48.810;9.150;2023-06-19T10:43:12;4.43;;;4.13;;
773;SDS011;370;48.810;9.150;2023-06-19T10:45:45;4.03;;;3.60;;
773;SDS011;370;48.810;9.150;2023-06-19T10:48:17;3.90;;;3.77;;
773;SDS011;370;48.810;9.150;2023-06-19T10:50:45;4.47;;;3.57;;
773;SDS011;370;48.810;9.150;2023-06-19T10:53:22;3.43;;;3.30;;
773;SDS011;370;48.810;9.150;2023-06-19T10:55:53;4.57;;;4.27;;
773;SDS011;370;48.810;9.150;2023-06-19T10:58:22;4.07;;;3.87;;
773;SDS011;370;48.810;9.150;2023-06-19T11:00:49;4.30;;;4.00;;
773;SDS011;370;48.810;9.150;2023-06-19T11:03:15;11.73;;;3.90;;
773;SDS011;370;48.810;9.150;2023-06-19T11:05:43;4.70;;;4.40;;
773;SDS011;370;48.810;9.150;2023-06-19T11:08:10;4.40;;;4.17;;
773;SDS011;370;48.810;9.150;2023-06-19T11:10:42;4.63;;;3.77;;
773;SDS011;370;48.810;9.150;2023-06-19T11:13:13;19.70;;;3.80;;
773;SDS011;370;48.810;9.150;2023-06-19T11:15:43;5.30;;;4.10;;
773;SDS011;370;48.810;9.150;2023-06-19T11:18:14;3.93;;;3.77;;
773;SDS011;370;48.810;9.150;2023-06-19T11:20:43;4.23;;;3.97;;
773;SDS011;370;48.810;9.150;2023-06-19T11:23:11;4.10;;;3.90;;
773;SDS011;370;48.810;9.150;2023-06-19T11:25:39;5.10;;;4.80;;
773;SDS011;370;48.810;9.150;2023-06-19T11:28:10;5.50;;;4.50;;
773;SDS011;370;48.810;9.150;2023-06-19T11:30:39;5.33;;;4.47;;
773;SDS011;370;48.810;9.150;2023-06-19T11:33:16;4.60;;;4.30;;
773;SDS011;370;48.810;9.150;2023-06-19T11:35:47;5.77;;;4.57;;
773;SDS011;370;48.810;9.150;2023-06-19T11:38:16;4.83;;;4.53;;
773;SDS011;370;48.810;9.150;2023-06-19T11:40:45;5.63;;;5.33;;
773;SDS011;370;48.810;9.150;2023-06-19T11:43:12;5.67;;;5.37;;
773;SDS011;370;48.810;9.150;2023-06-19T11:45:49;4.30;;;4.00;;
773;SDS011;370;48.810;9.150;2023-06-19T11:48:22;4.83;;;4.53;;
773;SDS011;370;48.810;9.150;2023-06-19T11:50:50;4.40;;;4.10;;
773;SDS011;370;48.810;9.150;2023-06-19T11:53:18;4.53;;;4.23;;
773;SDS011;370;48.810;9.150;2023-06-19T11:55:45;4.33;;;4.07;;
773;SDS011;370;48.810;9.150;2023-06-19T11:58:12;6.60;;;4.33;;
773;SDS011;370;48.810;9.150;2023-06-19T12:00:40;4.90;;;3.87;;
773;SDS011;370;48.810;9.150;2023-06-19T12:03:08;3.67;;;3.40;;
773;SDS011;370;48.810;9.150;2023-06-19T12:05:36;3.77;;;3.67;;
773;SDS011;370;48.810;9.150;2023-06-19T12:08:04;4.60;;;3.80;;
773;SDS011;370;48.810;9.150;2023-06-19T12:10:31;4.43;;;4.00;;
773;SDS011;370;48.810;9.150;2023-06-19T12:12:59;4.47;;;3.97;;
773;SDS011;370;48.810;9.150;2023-06-19T12:15:26;3.90;;;3.50;;
773;SDS011;370;48.810;9.150;2023-06-19T12:17:52;3.80;;;3.37;;
773;SDS011;370;48.810;9.150;2023-06-19T12:20:22;6.87;;;3.90;;
773;SDS011;370;48.810;9.150;2023-06-19T12:22:51;3.70;;;3.50;;
773;SDS011;370;48.810;9.150;2023-06-19T12:25:17;5.10;;;3.77;;
773;SDS011;370;48.810;9.150;2023-06-19T12:27:44;4.10;;;3.80;;
773;SDS011;370;48.810;9.150;2023-06-19T12:30:11;3.80;;;3.27;;
773;SDS011;370;48.810;9.150;2023-06-19T12:32:38;4.20;;;3.30;;
773;SDS011;370;48.810;9.150;2023-06-19T12:35:05;5.60;;;4.33;;
773;SDS011;370;48.810;9.150;2023-06-19T12:37:32;5.90;;;4.83;;
773;SDS011;370;48.810;9.150;2023-06-19T12:40:00;4.63;;;3.90;;
773;SDS011;370;48.810;9.150;2023-06-19T12:42:33;5.23;;;4.83;;
773;SDS011;370;48.810;9.150;2023-06-19T12:45:00;4.23;;;3.97;;
773;SDS011;370;48.810;9.150;2023-06-19T12:47:26;6.80;;;4.90;;
773;SDS011;370;48.810;9.150;2023-06-19T12:49:53;5.33;;;5.03;;
773;SDS011;370;48.810;9.150;2023-06-19T12:52:20;7.30;;;4.90;;
773;SDS011;370;48.810;9.150;2023-06-19T12:54:47;5.63;;;4.97;;
773;SDS011;370;48.810;9.150;2023-06-19T12:57:15;5.57;;;5.07;;
773;SDS011;370;48.810;9.150;2023-06-19T12:59:41;4.83;;;4.53;;
773;SDS011;370;48.810;9.150;2023-06-19T13:02:08;5.40;;;5.10;;
773;SDS011;370;48.810;9.150;2023-06-19T13:04:35;5.60;;;5.23;;
773;SDS011;370;48.810;9.150;2023-06-19T13:07:03;5.20;;;4.90;;
773;SDS011;370;48.810;9.150;2023-06-19T13:09:30;4.90;;;4.60;;
773;SDS011;370;48.810;9.150;2023-06-19T13:11:57;5.47;;;5.17;;
773;SDS011;370;48.810;9.150;2023-06-19T13:14:25;5.20;;;4.90;;
773;SDS011;370;48.810;9.150;2023-06-19T13:16:51;5.07;;;4.77;;
773;SDS011;370;48.810;9.150;2023-06-19T13:19:18;4.37;;;4.07;;
773;SDS011;370;48.810;9.150;2023-06-19T13:21:45;5.07;;;3.83;;
773;SDS011;370;48.810;9.150;2023-06-19T13:24:12;4.90;;;4.60;;
773;SDS011;370;48.810;9.150;2023-06-19T13:26:39;4.00;;;3.83;;
773;SDS011;370;48.810;9.150;2023-06-19T13:29:05;8.30;;;4.23;;
773;SDS011;370;48.810;9.150;2023-06-19T13:31:34;5.20;;;3.57;;
773;SDS011;370;48.810;9.150;2023-06-19T13:34:01;5.83;;;3.97;;
773;SDS011;370;48.810;9.150;2023-06-19T13:36:28;4.60;;;4.23;;
773;SDS011;370;48.810;9.150;2023-06-19T13:38:55;5.80;;;3.93;;
773;SDS011;370;48.810;9.150;2023-06-19T13:41:22;4.10;;;3.90;;
773;SDS011;370;48.810;9.150;2023-06-19T13:43:49;3.87;;;3.63;;
773;SDS011;370;48.810;9.150;2023-06-19T13:46:18;4.50;;;3.70;;
773;SDS011;370;48.810;9.150;2023-06-19T13:48:47;7.30;;;3.73;;
773;SDS011;370;48.810;9.150;2023-06-19T13:51:16;3.53;;;3.23;;
773;SDS011;370;48.810;9.150;2023-06-19T13:53:43;8.07;;;3.77;;
773;SDS011;370;48.810;9.150;2023-06-19T13:56:10;4.60;;;3.33;;
773;SDS011;370;48.810;9.150;2023-06-19T13:58:38;5.00;;;3.50;;
773;SDS011;370;48.810;9.150;2023-06-19T14:01:05;5.80;;;3.93;;
773;SDS011;370;48.810;9.150;2023-06-19T14:03:32;5.00;;;3.73;;
773;SDS011;370;48.810;9.150;2023-06-19T14:06:00;7.37;;;3.57;;
773;SDS011;370;48.810;9.150;2023-06-19T14:08:27;3.60;;;3.37;;
773;SDS011;370;48.810;9.150;2023-06-19T14:10:54;5.00;;;3.73;;
773;SDS011;370;48.810;9.150;2023-06-19T14:13:21;3.63;;;3.50;;
773;SDS011;370;48.810;9.150;2023-06-19T14:15:48;3.37;;;2.90;;
773;SDS011;370;48.810;9.150;2023-06-19T14:18:14;4.07;;;3.40;;
773;SDS011;370;48.810;9.150;2023-06-19T14:20:41;3.47;;;3.33;;
773;SDS011;370;48.810;9.150;2023-06-19T14:23:10;9.00;;;3.80;;
773;SDS011;370;48.810;9.150;2023-06-19T14:25:36;6.07;;;4.13;;
773;SDS011;370;48.810;9.150;2023-06-19T14:28:03;5.50;;;3.63;;
773;SDS011;370;48.810;9.150;2023-06-19T14:30:30;4.30;;;4.00;;
773;SDS011;370;48.810;9.150;2023-06-19T14:32:57;5.43;;;3.87;;
773;SDS011;370;48.810;9.150;2023-06-19T14:35:24;4.37;;;3.60;;
773;SDS011;370;48.810;9.150;2023-06-19T14:37:51;7.40;;;4.00;;
773;SDS011;370;48.810;9.150;2023-06-19T14:40:19;3.83;;;3.63;;
773;SDS011;370;48.810;9.150;2023-06-19T14:42:47;4.03;;;3.87;;
773;SDS011;370;48.810;9.150;2023-06-19T14:45:14;4.97;;;3.63;;
773;SDS011;370;48.810;9.150;2023-06-19T14:47:41;3.87;;;3.53;;
773;SDS011;370;48.810;9.150;2023-06-19T14:50:08;8.93;;;3.20;;
773;SDS011;370;48.810;9.150;2023-06-19T14:52:35;6.40;;;3.73;;
773;SDS011;370;48.810;9.150;2023-06-19T14:55:02;5.83;;;3.20;;
773;SDS011;370;48.810;9.150;2023-06-19T14:57:30;3.70;;;3.50;;
773;SDS011;370;48.810;9.150;2023-06-19T14:59:57;8.13;;;3.67;;
773;SDS011;370;48.810;9.150;2023-06-19T15:02:24;3.70;;;3.50;;
773;SDS011;370;48.810;9.150;2023-06-19T15:04:51;5.80;;;4.53;;
773;SDS011;370;48.810;9.150;2023-06-19T15:07:17;4.90;;;4.07;;
773;SDS011;370;48.810;9.150;2023-06-19T15:09:44;3.43;;;3.23;;
773;SDS011;370;48.810;9.150;2023-06-19T15:12:11;4.37;;;3.80;;
773;SDS011;370;48.810;9.150;2023-06-19T15:14:39;4.27;;;3.80;;
773;SDS011;370;48.810;9.150;2023-06-19T15:17:06;4.87;;;3.77;;
773;SDS011;370;48.810;9.150;2023-06-19T15:19:33;6.60;;;3.93;;
773;SDS011;370;48.810;9.150;2023-06-19T15:21:59;4.20;;;3.80;;
773;SDS011;370;48.810;9.150;2023-06-19T15:24:26;6.20;;;3.80;;
773;SDS011;370;48.810;9.150;2023-06-19T15:26:53;4.07;;;3.40;;
773;SDS011;370;48.810;9.150;2023-06-19T15:29:22;7.03;;;3.83;;
773;SDS011;370;48.810;9.150;2023-06-19T15:31:50;4.93;;;3.63;;
773;SDS011;370;48.810;9.150;2023-06-19T15:34:16;4.43;;;3.77;;
773;SDS011;370;48.810;9.150;2023-06-19T15:36:43;5.87;;;3.57;;
773;SDS011;370;48.810;9.150;2023-06-19T15:39:10;4.90;;;3.60;;
773;SDS011;370;48.810;9.150;2023-06-19T15:41:36;6.27;;;3.60;;
773;SDS011;370;48.810;9.150;2023-06-19T15:44:03;5.23;;;3.93;;
773;SDS011;370;48.810;9.150;2023-06-19T15:46:30;5.73;;;3.80;;
773;SDS011;370;48.810;9.150;2023-06-19T15:48:59;4.17;;;3.53;;
773;SDS011;370;48.810;9.150;2023-06-19T15:51:26;3.87;;;3.30;;
773;SDS011;370;48.810;9.150;2023-06-19T15:53:53;5.70;;;3.47;;
773;SDS011;370;48.810;9.150;2023-06-19T15:56:20;3.70;;;3.10;;
773;SDS011;370;48.810;9.150;2023-06-19T15:58:47;6.63;;;3.50;;